Red Lodge, MT

3:06 PM MST on February 06, 2016 (GMT -0700)
South of Red Lodge on Beartooth Hwy | | Change Station
CLOSE
Current Station
Personal Weather Station
Location: Red Lodge, MT
Elevation: 6200 ft
Nearby Weather Stations
Active Advisory: High Wind Warning

Elev 6200 ft 45.11 °N, 109.30 °W | Updated 6 seconds ago

Partly Cloudy
Partly Cloudy
40.6 °F
Feels Like 37 °F
N
4.9
Wind Variable Wind from South
Gusts 10.0 mph

Today
High -- | Low -- °F
--% Chance of Precip.
Yesterday
High -- | Low -- °F
Precip. -- in
Pressure 30.05 in
Visibility 10.0 miles
Clouds Few 9000 ft
Windchill 37 °F
Dew Point 15 °F
Humidity 35%
Rainfall 0.00 in
Snow Depth Not available.
7:31 AM 5:31 PM
Waning Crescent, 4% visible
METAR KCOD 062155Z AUTO 28012G33KT 10SM FEW090 08/M11 A3005 RMK AO1
Pressure 30.05 in
Visibility 10.0 miles
Clouds Few 9000 ft
Windchill 37 °F
Dew Point 15 °F
Humidity 35%
Rainfall 0.00 in
Snow Depth Not available.
7:31 AM 5:31 PM
Waning Crescent, 4% visible
METAR KCOD 062155Z AUTO 28012G33KT 10SM FEW090 08/M11 A3005 RMK AO1

10-Day Weather Forecast

Almanac

Astronomy

Feb. 06, 2016 Rise Set
Actual Time
Civil Twilight
Nautical Twilight
Astronomical Twilight
Moon
Length of Visible Light
Length of Day
Tomorrow will be .
, % of the Moon is Illuminated

Today's Extremes

State Highs State Lows

Community

WunderPhotos

Upload Photos

1,891,082 photos uploaded!

WunderBlog® & News

Nearby

Air Quality

  Air Quality AQ Index Pollutant
Not available.

Snow Depth

Station Depth Elevation

Earthquake Activity

City Distance Mag. Time & Date
Minimum magnitude displayed is 2.5.

Coastal Water Temperatures

Place Temperature

Stations

Nearby Weather Stations

Station Location Temp. Windchill Dew Point Humidity Wind Precip. Elev Updated Type
                   

Watches & Warnings

High Wind Warning
Issued: 2:44 PM MST Feb. 6, 2016 – National Weather Service

... High Wind Warning remains in effect until 11 PM MST this
evening...

* impacts... dangerous cross winds will make travel hazardous for
high profile and Load carrying vehicles along Interstate 90...
Interstate 94... and US Highway 12... 87 and 212.

* Timing... west to northwest winds will continue into this
evening. The winds are expected to diminish late this evening.

* Winds... peak gusts up to 65 mph are expected.

Precautionary/preparedness actions...

Winds of these magnitudes can cause property damage without extra
precautions. Motorists in high profile vehicles should use
caution until the winds subside.